createdAt,value
2022-10-07T00:02:47.590Z,62.89
2022-10-07T00:05:35.930Z,55.63
2022-10-07T00:08:24.947Z,56.96
2022-10-07T00:11:15.635Z,58.65
2022-10-07T00:14:10.912Z,68.36
2022-10-07T00:17:08.018Z,64.93
2022-10-07T00:20:15.241Z,55.63
2022-10-07T00:23:38.942Z,55.17
2022-10-07T00:26:44.391Z,58.77
2022-10-07T00:30:07.986Z,69.75
2022-10-07T00:33:10.611Z,62.52
2022-10-07T00:36:16.344Z,55.41
2022-10-07T00:39:32.606Z,57.27
2022-10-07T00:42:29.859Z,60.98
2022-10-07T00:45:57.238Z,69.61
2022-10-07T00:48:55.220Z,61.15
2022-10-07T00:51:53.114Z,54.53
2022-10-07T00:54:55.054Z,56.71
2022-10-07T00:57:55.914Z,60.15
2022-10-07T01:00:45.300Z,68.82
2022-10-07T01:03:33.859Z,62.15
2022-10-07T01:06:22.371Z,55.29
2022-10-07T01:09:20.990Z,56.50
2022-10-07T01:12:43.221Z,59.62
2022-10-07T01:16:07.633Z,68.43
2022-10-07T01:19:29.305Z,59.68
2022-10-07T01:23:01.335Z,54.77
2022-10-07T01:26:52.999Z,57.11
2022-10-07T01:30:24.954Z,61.67
2022-10-07T01:33:37.941Z,70.77
2022-10-07T01:36:31.892Z,61.85
2022-10-07T01:39:42.862Z,54.81
2022-10-07T01:42:49.346Z,56.78
2022-10-07T01:45:43.468Z,60.66
2022-10-07T01:49:04.236Z,69.54
2022-10-07T01:52:08.042Z,61.69
2022-10-07T01:55:17.922Z,54.18
2022-10-07T01:58:51.433Z,56.69
2022-10-07T02:02:26.603Z,60.88
2022-10-07T02:05:44.601Z,70.22
2022-10-07T02:09:13.800Z,60.09
2022-10-07T02:12:28.114Z,54.44
2022-10-07T02:15:48.881Z,57.91
2022-10-07T02:18:42.846Z,61.59
2022-10-07T02:22:03.105Z,70.53
2022-10-07T02:25:14.055Z,62.54
2022-10-07T02:28:26.521Z,55.09
2022-10-07T02:31:41.314Z,56.82
2022-10-07T02:34:48.659Z,61.34
2022-10-07T02:38:08.502Z,69.96
2022-10-07T02:41:51.884Z,61.48
2022-10-07T02:45:37.335Z,54.72
2022-10-07T02:48:59.638Z,58.71
2022-10-07T02:52:41.478Z,61.90
2022-10-07T02:55:42.576Z,70.25
2022-10-07T02:58:56.180Z,60.90
2022-10-07T03:02:16.772Z,54.76
2022-10-07T03:05:42.798Z,57.83
2022-10-07T03:08:52.661Z,60.27
2022-10-07T03:11:49.537Z,70.78
2022-10-07T03:14:49.903Z,62.57
2022-10-07T03:17:36.046Z,54.92
2022-10-07T03:20:47.575Z,57.48
2022-10-07T03:23:51.288Z,60.23
2022-10-07T03:26:37.913Z,70.83
2022-10-07T03:29:38.936Z,65.90
2022-10-07T03:32:46.471Z,55.60
2022-10-07T03:35:27.078Z,56.87
2022-10-07T03:38:30.190Z,60.25
2022-10-07T03:41:27.047Z,68.61
2022-10-07T03:44:41.174Z,61.40
2022-10-07T03:47:38.529Z,53.96
2022-10-07T03:50:06.262Z,56.35
2022-10-07T03:52:32.792Z,59.38
2022-10-07T03:54:59.341Z,66.83
2022-10-07T03:57:44.867Z,65.15
2022-10-07T04:00:12.340Z,57.03
2022-10-07T04:02:38.922Z,54.84
2022-10-07T04:05:05.667Z,57.23
2022-10-07T04:07:33.309Z,58.89
2022-10-07T04:10:00.332Z,61.53
2022-10-07T04:12:26.857Z,70.31
2022-10-07T04:14:54.213Z,66.30
2022-10-07T04:17:21.937Z,60.57
2022-10-07T04:19:48.503Z,54.18
2022-10-07T04:22:15.034Z,55.90
2022-10-07T04:24:41.607Z,59.46
2022-10-07T04:27:08.187Z,61.88
2022-10-07T04:29:39.004Z,69.48
2022-10-07T04:32:05.933Z,64.65
2022-10-07T04:34:32.798Z,57.64
2022-10-07T04:37:01.261Z,54.52
2022-10-07T04:39:48.937Z,56.85
2022-10-07T04:42:34.793Z,58.77
2022-10-07T04:45:01.450Z,68.37
2022-10-07T04:47:28.040Z,63.43
2022-10-07T04:49:55.265Z,55.64
2022-10-07T04:52:21.915Z,55.53
2022-10-07T04:54:48.559Z,58.45
2022-10-07T04:57:15.128Z,60.60
2022-10-07T04:59:43.088Z,68.62
2022-10-07T05:02:10.075Z,64.31
2022-10-07T05:04:37.165Z,56.33
2022-10-07T05:07:04.189Z,55.46
2022-10-07T05:09:30.836Z,59.35
2022-10-07T05:11:57.520Z,66.81
2022-10-07T05:14:24.185Z,63.81
2022-10-07T05:16:51.708Z,55.73
2022-10-07T05:19:18.818Z,55.42
2022-10-07T05:21:45.908Z,58.48
2022-10-07T05:24:12.496Z,60.85
2022-10-07T05:26:39.048Z,68.20
2022-10-07T05:29:07.082Z,65.15
2022-10-07T05:31:34.133Z,58.99
2022-10-07T05:34:01.031Z,54.12
2022-10-07T05:36:27.623Z,55.86
2022-10-07T05:38:58.160Z,58.29
2022-10-07T05:41:24.920Z,60.26
2022-10-07T05:43:51.560Z,61.88
2022-10-07T05:46:20.649Z,70.15
2022-10-07T05:48:49.013Z,64.28
2022-10-07T05:51:15.725Z,55.83
2022-10-07T05:53:43.169Z,55.27
2022-10-07T05:56:12.688Z,57.78
2022-10-07T05:58:39.449Z,59.71
2022-10-07T06:01:13.704Z,61.83
2022-10-07T06:03:41.705Z,68.27
2022-10-07T06:06:09.145Z,62.41
2022-10-07T06:08:36.719Z,54.78
2022-10-07T06:11:23.772Z,54.29
2022-10-07T06:13:52.938Z,57.15
2022-10-07T06:16:20.151Z,58.52
2022-10-07T06:18:47.895Z,60.48
2022-10-07T06:21:14.445Z,68.00
2022-10-07T06:23:41.014Z,65.93
2022-10-07T06:26:10.650Z,56.73
2022-10-07T06:28:42.228Z,54.79
2022-10-07T06:31:15.136Z,56.83
2022-10-07T06:33:41.963Z,58.81
2022-10-07T06:36:13.402Z,66.31
2022-10-07T06:38:48.263Z,64.71
2022-10-07T06:41:16.027Z,56.35
2022-10-07T06:43:42.832Z,54.17
2022-10-07T06:46:14.783Z,55.84
2022-10-07T06:48:43.049Z,57.42
2022-10-07T06:51:13.797Z,59.25
2022-10-07T06:53:40.369Z,60.98
2022-10-07T06:56:06.978Z,67.95
2022-10-07T06:58:33.619Z,65.63
2022-10-07T07:01:00.906Z,58.91
2022-10-07T07:03:29.079Z,54.72
2022-10-07T07:05:55.979Z,56.54
2022-10-07T07:08:27.698Z,57.94
2022-10-07T07:10:54.630Z,58.14
2022-10-07T07:13:21.463Z,60.71
2022-10-07T07:15:55.528Z,65.86
2022-10-07T07:19:11.649Z,56.85
2022-10-07T07:21:38.395Z,54.54
2022-10-07T07:24:05.662Z,55.55
2022-10-07T07:26:32.689Z,58.44
2022-10-07T07:29:02.404Z,59.74
2022-10-07T07:31:32.977Z,66.16
2022-10-07T07:34:01.963Z,60.90
2022-10-07T07:36:31.015Z,52.87
2022-10-07T07:39:04.063Z,52.23
2022-10-07T07:41:33.210Z,55.65
2022-10-07T07:44:03.582Z,56.95
2022-10-07T07:46:36.270Z,56.72
2022-10-07T07:49:03.989Z,57.94
2022-10-07T07:51:31.969Z,58.56
2022-10-07T07:53:59.896Z,60.58
2022-10-07T07:56:29.250Z,66.28
2022-10-07T07:58:56.589Z,59.78
2022-10-07T08:01:23.274Z,52.83
2022-10-07T08:03:51.017Z,53.40
2022-10-07T08:06:20.792Z,53.66
2022-10-07T08:08:48.099Z,54.25
2022-10-07T08:11:19.654Z,55.12
2022-10-07T08:13:47.227Z,57.66
2022-10-07T08:16:17.355Z,58.79
2022-10-07T08:18:47.356Z,60.30
2022-10-07T08:21:18.272Z,60.53
2022-10-07T08:23:45.729Z,64.11
2022-10-07T08:26:12.253Z,59.54
2022-10-07T08:28:40.288Z,53.05
2022-10-07T08:31:15.550Z,52.99
2022-10-07T08:33:45.124Z,55.66
2022-10-07T08:36:19.926Z,57.69
2022-10-07T08:38:49.461Z,57.24
2022-10-07T08:41:19.914Z,59.10
2022-10-07T08:43:51.092Z,60.53
2022-10-07T08:46:31.100Z,61.33
2022-10-07T08:49:10.597Z,64.52
2022-10-07T08:52:17.073Z,57.24
2022-10-07T08:54:43.688Z,53.41
2022-10-07T08:57:20.545Z,54.58
2022-10-07T08:59:53.849Z,54.76
2022-10-07T09:03:28.479Z,57.27
2022-10-07T09:05:57.199Z,59.68
2022-10-07T09:08:32.691Z,58.19
2022-10-07T09:11:15.903Z,57.87
2022-10-07T09:14:11.203Z,58.03
2022-10-07T09:16:43.376Z,61.34
2022-10-07T09:19:32.026Z,60.48
2022-10-07T09:22:06.519Z,58.93
2022-10-07T09:24:35.053Z,59.67
2022-10-07T09:27:09.152Z,60.48
2022-10-07T09:29:36.686Z,59.74
2022-10-07T09:32:03.353Z,59.58
2022-10-07T09:34:31.265Z,63.13
2022-10-07T09:37:26.719Z,55.78
2022-10-07T09:39:57.351Z,52.03
2022-10-07T09:42:31.679Z,52.89
2022-10-07T09:45:02.110Z,54.03
2022-10-07T09:47:36.772Z,55.70
2022-10-07T09:50:04.149Z,56.24
2022-10-07T09:52:32.343Z,56.86
2022-10-07T09:55:41.773Z,58.86
2022-10-07T09:58:17.782Z,59.90
2022-10-07T10:00:49.646Z,58.41
2022-10-07T10:03:17.484Z,57.85
2022-10-07T10:05:55.298Z,58.67
2022-10-07T10:08:24.220Z,60.54
2022-10-07T10:10:59.096Z,58.79
2022-10-07T10:13:32.750Z,58.53
2022-10-07T10:16:00.569Z,58.74
2022-10-07T10:18:36.614Z,59.30
2022-10-07T10:21:20.223Z,59.73
2022-10-07T10:23:49.528Z,59.53
2022-10-07T10:26:42.126Z,58.61
2022-10-07T10:29:27.188Z,58.06
2022-10-07T10:32:25.621Z,58.01
2022-10-07T10:35:14.323Z,57.79
2022-10-07T10:37:40.881Z,57.03
2022-10-07T10:40:29.047Z,57.09
2022-10-07T10:43:25.823Z,56.17
2022-10-07T10:46:22.541Z,56.23
2022-10-07T10:49:14.065Z,56.47
2022-10-07T10:51:53.330Z,56.42
2022-10-07T10:54:43.372Z,56.19
2022-10-07T10:57:32.287Z,55.97
2022-10-07T11:00:11.275Z,55.18
2022-10-07T11:02:37.838Z,55.07
2022-10-07T11:05:22.030Z,55.01
2022-10-07T11:08:10.449Z,55.00
2022-10-07T11:10:52.187Z,55.09
2022-10-07T11:13:38.572Z,55.06
2022-10-07T11:16:28.008Z,55.15
2022-10-07T11:19:22.213Z,54.62
2022-10-07T11:21:50.924Z,54.17
2022-10-07T11:24:32.666Z,53.94
2022-10-07T11:27:28.435Z,53.49
2022-10-07T11:30:15.196Z,53.55
2022-10-07T11:32:49.789Z,53.74
2022-10-07T11:35:37.647Z,54.03
2022-10-07T11:38:10.408Z,54.20
2022-10-07T11:41:03.369Z,54.44
2022-10-07T11:43:33.330Z,54.59
2022-10-07T11:46:14.228Z,53.93
2022-10-07T11:48:46.808Z,53.61
2022-10-07T11:51:27.184Z,53.19
2022-10-07T11:53:57.889Z,52.73
2022-10-07T11:56:31.432Z,52.12
2022-10-07T11:59:01.034Z,51.55
2022-10-07T12:01:29.027Z,52.11
2022-10-07T12:04:00.347Z,52.54
2022-10-07T12:06:27.391Z,52.19
2022-10-07T12:08:54.571Z,52.25
2022-10-07T12:11:24.749Z,52.39
2022-10-07T12:13:53.657Z,52.25
2022-10-07T12:16:32.560Z,52.15
2022-10-07T12:19:09.776Z,51.91
2022-10-07T12:22:05.022Z,51.85
2022-10-07T12:24:34.687Z,52.36
2022-10-07T12:27:28.177Z,52.26
2022-10-07T12:29:58.877Z,52.25
2022-10-07T12:32:44.319Z,51.89
2022-10-07T12:35:29.373Z,51.81
2022-10-07T12:38:04.607Z,51.38
2022-10-07T12:40:35.001Z,51.97
2022-10-07T12:43:15.563Z,51.88
2022-10-07T12:45:43.580Z,50.93
2022-10-07T12:48:20.436Z,50.98
2022-10-07T12:50:50.968Z,51.15
2022-10-07T12:53:19.322Z,51.29
2022-10-07T12:55:50.345Z,51.53
2022-10-07T12:58:57.542Z,51.72
2022-10-07T13:01:48.256Z,51.59
2022-10-07T13:04:24.057Z,51.59
2022-10-07T13:07:12.506Z,52.05
2022-10-07T13:09:47.933Z,52.28
2022-10-07T13:12:34.549Z,52.91
2022-10-07T13:15:28.042Z,53.06
2022-10-07T13:18:40.638Z,52.90
2022-10-07T13:21:22.179Z,52.73
2022-10-07T13:23:52.554Z,52.58
2022-10-07T13:26:22.372Z,52.49
2022-10-07T13:28:58.428Z,52.67
2022-10-07T13:31:28.678Z,52.68
2022-10-07T13:33:57.452Z,52.63
2022-10-07T13:36:29.777Z,52.76
2022-10-07T13:39:31.762Z,52.63
2022-10-07T13:42:00.040Z,52.71
2022-10-07T13:44:30.867Z,52.76
2022-10-07T13:47:06.988Z,53.18
2022-10-07T13:49:38.119Z,53.15
2022-10-07T13:52:21.728Z,53.59
2022-10-07T13:54:52.859Z,53.58
2022-10-07T13:57:21.518Z,53.41
2022-10-07T13:59:49.499Z,53.70
2022-10-07T14:02:16.634Z,53.92
2022-10-07T14:04:50.668Z,53.45
2022-10-07T14:07:20.101Z,53.06
2022-10-07T14:09:46.617Z,53.19
2022-10-07T14:12:18.218Z,53.21
2022-10-07T14:14:52.176Z,53.00
2022-10-07T14:17:21.859Z,53.23
2022-10-07T14:19:56.298Z,53.23
2022-10-07T14:22:34.364Z,53.53
2022-10-07T14:25:04.367Z,53.77
2022-10-07T14:27:40.017Z,53.33
2022-10-07T14:30:29.429Z,53.96
2022-10-07T14:33:25.786Z,54.05
2022-10-07T14:36:12.856Z,54.15
2022-10-07T14:38:41.283Z,54.55
2022-10-07T14:41:09.687Z,54.61
2022-10-07T14:43:39.271Z,54.63
2022-10-07T14:46:12.142Z,54.86
2022-10-07T14:48:39.035Z,54.93
2022-10-07T14:51:05.871Z,55.38
2022-10-07T14:53:33.217Z,55.62
2022-10-07T14:55:59.917Z,55.91
2022-10-07T14:58:26.592Z,55.97
2022-10-07T15:00:53.238Z,56.23
2022-10-07T15:03:20.166Z,56.61
2022-10-07T15:05:48.887Z,57.04
2022-10-07T15:08:15.382Z,57.27
2022-10-07T15:10:41.952Z,57.58
2022-10-07T15:13:13.211Z,57.62
2022-10-07T15:15:42.465Z,57.50
2022-10-07T15:18:11.491Z,57.71
2022-10-07T15:20:39.758Z,57.83
2022-10-07T15:23:08.201Z,57.94
2022-10-07T15:25:35.887Z,58.24
2022-10-07T15:28:02.496Z,58.90
2022-10-07T15:30:29.921Z,58.87
2022-10-07T15:32:58.370Z,59.35
2022-10-07T15:35:27.102Z,59.71
2022-10-07T15:37:54.545Z,60.22
2022-10-07T15:40:21.182Z,60.70
2022-10-07T15:42:48.191Z,60.68
2022-10-07T15:45:15.171Z,61.17
2022-10-07T15:47:41.758Z,61.70
2022-10-07T15:50:08.809Z,62.06
2022-10-07T15:52:35.401Z,68.97
2022-10-07T15:55:07.896Z,66.48
2022-10-07T15:57:35.190Z,57.18
2022-10-07T16:00:02.527Z,54.39
2022-10-07T16:02:29.203Z,55.70
2022-10-07T16:04:55.831Z,57.07
2022-10-07T16:07:22.485Z,58.20
2022-10-07T16:09:49.033Z,59.08
2022-10-07T16:12:15.579Z,60.08
2022-10-07T16:14:42.136Z,61.09
2022-10-07T16:17:08.766Z,68.27
2022-10-07T16:19:35.424Z,66.25
2022-10-07T16:22:02.028Z,60.03
2022-10-07T16:24:34.072Z,54.20
2022-10-07T16:27:01.672Z,53.90
2022-10-07T16:29:47.054Z,55.88
2022-10-07T16:32:13.633Z,57.85
2022-10-07T16:34:43.612Z,60.06
2022-10-07T16:37:11.251Z,66.89
2022-10-07T16:39:37.862Z,64.68
2022-10-07T16:42:04.499Z,57.08
2022-10-07T16:44:31.092Z,55.64
2022-10-07T16:46:59.209Z,57.67
2022-10-07T16:49:27.828Z,59.75
2022-10-07T16:51:54.546Z,60.67
2022-10-07T16:54:21.931Z,68.53
2022-10-07T16:56:50.850Z,65.30
2022-10-07T16:59:22.580Z,59.38
2022-10-07T17:01:56.351Z,54.69
2022-10-07T17:04:24.659Z,56.00
2022-10-07T17:06:51.721Z,58.57
2022-10-07T17:09:18.635Z,60.65
2022-10-07T17:11:45.897Z,67.61
2022-10-07T17:14:17.333Z,63.94
2022-10-07T17:16:49.883Z,56.99
2022-10-07T17:19:19.823Z,56.36
2022-10-07T17:21:48.326Z,58.78
2022-10-07T17:24:16.106Z,61.33
2022-10-07T17:26:43.390Z,67.39
2022-10-07T17:29:12.202Z,64.30
2022-10-07T17:31:41.047Z,58.69
2022-10-07T17:34:07.702Z,55.34
2022-10-07T17:36:35.367Z,56.95
2022-10-07T17:39:02.703Z,60.15
2022-10-07T17:41:32.333Z,66.71
2022-10-07T17:44:01.526Z,64.14
2022-10-07T17:46:30.651Z,57.36
2022-10-07T17:48:59.341Z,56.62
2022-10-07T17:51:30.049Z,58.94
2022-10-07T17:53:59.846Z,61.01
2022-10-07T17:56:28.398Z,68.55
2022-10-07T17:58:55.923Z,65.83
2022-10-07T18:01:27.367Z,60.41
2022-10-07T18:04:02.161Z,55.78
2022-10-07T18:06:37.697Z,56.47
2022-10-07T18:09:06.568Z,59.65
2022-10-07T18:11:52.993Z,66.23
2022-10-07T18:14:38.353Z,63.48
2022-10-07T18:17:06.446Z,56.18
2022-10-07T18:19:33.139Z,56.90
2022-10-07T18:21:59.807Z,58.95
2022-10-07T18:24:28.966Z,65.97
2022-10-07T18:26:59.475Z,64.07
2022-10-07T18:29:31.993Z,58.84
2022-10-07T18:31:59.344Z,55.46
2022-10-07T18:34:26.172Z,57.41
2022-10-07T18:36:56.542Z,60.19
2022-10-07T18:39:24.825Z,66.76
2022-10-07T18:41:51.532Z,63.80
2022-10-07T18:44:18.073Z,57.06
2022-10-07T18:46:45.146Z,56.44
2022-10-07T18:49:13.944Z,58.93
2022-10-07T18:51:41.262Z,61.29
2022-10-07T18:54:07.942Z,68.34
2022-10-07T18:56:39.812Z,65.33
2022-10-07T18:59:08.645Z,59.83
2022-10-07T19:01:35.279Z,55.14
2022-10-07T19:04:03.233Z,56.47
2022-10-07T19:06:32.680Z,59.29
2022-10-07T19:09:05.267Z,61.71
2022-10-07T19:11:31.853Z,68.82
2022-10-07T19:13:59.585Z,65.13
2022-10-07T19:16:35.407Z,60.05
2022-10-07T19:19:05.296Z,55.42
2022-10-07T19:21:33.571Z,56.23
2022-10-07T19:24:03.564Z,59.11
2022-10-07T19:26:39.597Z,61.22
2022-10-07T19:29:09.141Z,68.84
2022-10-07T19:31:40.364Z,65.16
2022-10-07T19:34:09.878Z,60.05
2022-10-07T19:36:42.494Z,54.99
2022-10-07T19:39:10.747Z,55.53
2022-10-07T19:41:37.749Z,58.71
2022-10-07T19:44:05.698Z,60.14
2022-10-07T19:46:33.664Z,67.30
2022-10-07T19:49:02.270Z,65.59
2022-10-07T19:51:30.772Z,59.41
2022-10-07T19:53:59.898Z,54.98
2022-10-07T19:56:29.500Z,56.72
2022-10-07T19:58:58.547Z,59.72
2022-10-07T20:01:27.866Z,66.49
2022-10-07T20:04:08.917Z,64.17
2022-10-07T20:06:36.961Z,58.06
2022-10-07T20:09:05.304Z,54.60
2022-10-07T20:11:32.857Z,56.87
2022-10-07T20:14:00.057Z,59.59
2022-10-07T20:16:27.921Z,66.26
2022-10-07T20:19:01.132Z,64.89
2022-10-07T20:21:29.881Z,59.23
2022-10-07T20:23:56.807Z,55.12
2022-10-07T20:26:26.108Z,56.67
2022-10-07T20:28:55.582Z,58.87
2022-10-07T20:31:28.555Z,60.92
2022-10-07T20:33:56.632Z,68.71
2022-10-07T20:36:29.521Z,64.75
2022-10-07T20:39:17.850Z,58.93
2022-10-07T20:42:03.303Z,54.60
2022-10-07T20:44:30.484Z,56.51
2022-10-07T20:46:57.398Z,58.53
2022-10-07T20:49:28.558Z,60.46
2022-10-07T20:51:59.533Z,67.72
2022-10-07T20:54:26.901Z,64.69
2022-10-07T20:56:55.036Z,58.36
2022-10-07T20:59:21.696Z,54.45
2022-10-07T21:01:48.313Z,56.20
2022-10-07T21:04:15.665Z,58.35
2022-10-07T21:06:43.574Z,60.56
2022-10-07T21:09:11.467Z,67.62
2022-10-07T21:11:38.652Z,64.16
2022-10-07T21:14:05.326Z,56.74
2022-10-07T21:16:35.173Z,55.92
2022-10-07T21:19:02.012Z,58.16
2022-10-07T21:21:29.091Z,61.01
2022-10-07T21:23:55.761Z,67.63
2022-10-07T21:26:23.057Z,64.32
2022-10-07T21:28:49.648Z,58.79
2022-10-07T21:31:19.261Z,54.92
2022-10-07T21:33:48.866Z,56.59
2022-10-07T21:36:21.092Z,59.51
2022-10-07T21:38:53.469Z,61.33
2022-10-07T21:41:23.280Z,68.76
2022-10-07T21:43:51.820Z,64.52
2022-10-07T21:46:19.039Z,59.04
2022-10-07T21:48:45.710Z,54.59
2022-10-07T21:51:13.187Z,56.45
2022-10-07T21:53:40.096Z,59.20
2022-10-07T21:56:08.569Z,61.45
2022-10-07T21:58:35.887Z,68.40
2022-10-07T22:01:11.828Z,64.19
2022-10-07T22:03:38.903Z,58.24
2022-10-07T22:06:08.082Z,54.56
2022-10-07T22:08:35.762Z,56.85
2022-10-07T22:11:19.284Z,59.60
2022-10-07T22:13:53.394Z,60.59
2022-10-07T22:16:20.085Z,69.27
2022-10-07T22:18:52.070Z,64.73
2022-10-07T22:21:23.941Z,58.56
2022-10-07T22:24:01.726Z,55.18
2022-10-07T22:26:33.443Z,57.28
2022-10-07T22:29:00.405Z,59.77
2022-10-07T22:31:27.236Z,66.76
2022-10-07T22:33:56.745Z,64.28
2022-10-07T22:36:23.396Z,58.85
2022-10-07T22:38:50.439Z,54.71
2022-10-07T22:41:19.443Z,56.47
2022-10-07T22:43:47.717Z,59.05
2022-10-07T22:46:26.309Z,60.99
2022-10-07T22:48:56.427Z,68.92
2022-10-07T22:51:24.525Z,64.41
2022-10-07T22:53:54.505Z,58.61
2022-10-07T22:56:22.553Z,55.12
2022-10-07T22:58:54.947Z,57.54
2022-10-07T23:01:22.213Z,59.97
2022-10-07T23:03:48.880Z,67.44
2022-10-07T23:06:18.213Z,64.76
2022-10-07T23:08:46.925Z,58.73
2022-10-07T23:11:19.750Z,55.49
2022-10-07T23:13:46.673Z,57.57
2022-10-07T23:16:16.564Z,60.02
2022-10-07T23:18:45.077Z,67.11
2022-10-07T23:21:13.940Z,64.87
2022-10-07T23:23:43.706Z,59.35
2022-10-07T23:26:12.575Z,55.01
2022-10-07T23:28:39.998Z,57.12
2022-10-07T23:31:09.087Z,59.79
2022-10-07T23:33:37.242Z,62.02
2022-10-07T23:36:07.321Z,69.83
2022-10-07T23:38:34.397Z,64.99
2022-10-07T23:41:02.330Z,59.33
2022-10-07T23:43:33.471Z,54.66
2022-10-07T23:46:01.362Z,56.72
2022-10-07T23:48:28.559Z,59.15
2022-10-07T23:50:55.351Z,62.59
2022-10-07T23:53:23.247Z,70.20
2022-10-07T23:55:51.895Z,64.13
2022-10-07T23:58:21.668Z,58.86
